Terminal Aerodrome Forecast
Issued by NWS Wilmington, NC

Current Version | Previous Version | Graphics & Text | Print | Product List | Glossary Off
Versions: 1 2 3 4 5 6 7 8 9 10 11 12 13 14 15 16 17

000
FTUS42 KILM 281120
TAFFLO
TAF
KFLO 281120Z 2812/2912 21006KT P6SM VCSH BKN060
      TEMPO 2812/2816 4SM TSRA OVC040CB
     FM281900 23011KT P6SM SCT040
      TEMPO 2819/2822 5SM -SHRA BKN040
     FM290700 31005KT P6SM FEW050=

USA.gov is the U.S. government's official web portal to all federal, state and local government web resources and services.